Portada
METAR-TAF:

METAR-TAF

Aeropuertos :

Aeropuerto Internacional de Chuuk

Weno, Micronesia

latitud: 07-28N, longitud: 151-51E, altitud: 3 m

Observación

El informe se hizo hace 1 hora y 26 minutos, a las 04:51 UTC
Viento 4 kt con dirección variable
Temperatura 30°C
Humedad 84%
Presión 1007 hPa
Visibilidad: 24.1 km
Escasas nubes a una altura de 1200 ft
Nubes dispersas a una altura de 12000 ft
Cielo nuboso a una altura de 28000 ft

METAR: PTKK 200451Z VRB04KT 15SM FEW012 SCT120 BKN280 30/27 A2973 RMK SLP067 T02950267

Hora: 16:17 (06:17 UTC)

Pronóstico

El informe se hizo hace 57 minutos, a las 05:20 UTC
Pronóstico válido del 20 a las 06 UTC al 21 a las 06 UTC
Viento 10 kt del este
Visibilidad: 10 km
Escasas nubes a una altura de 1200 ft
Nubes dispersas a una altura de 3000 ft
Nubes dispersas a una altura de 10000 ft
chaparrones en las proximidades,

TAF: PTKK 200520Z 2006/2106 10010KT P6SM VCSH FEW012 SCT030 SCT100

Observaciones y pronósticos meteorológicos de más de 4000 aeropuertos (mensajes METAR y TAF).

Los puntos amarillos y rojos representan las estaciones disponibles.

Ponga el ratón en el punto deseado para ver el nombre de la estación.

Haga clic para ver las observaciones y los pronósticos meteorológicos.

Para cambiar el mapa : haga clic en los botones verdes con una cruz de color negro para hacer un zoom, en el botón verde con un guión para alejar o en las flechas verdes para mapas adyacentes.


METAR-TAF: